Time;durP1;ratioP1;P1;durP2;ratioP2;P2;SDS_P1;SDS_P2;PMS_P1;PMS_P2;Temp;Humidity;BMP_temperature;BMP_pressure;BME280_temperature;BME280_humidity;BME280_pressure;Samples;Min_cycle;Max_cycle;Signal;HPM_P1;HPM_P2
2022/07/31 00:00:23;;;;;;;3.20;2.20;;;;;;;21.38;50.48;98535.27;104660;1274;75660;-25
2022/07/31 00:02:50;;;;;;;3.70;2.00;;;;;;;21.41;50.58;98536.29;104680;1274;62109;-25
2022/07/31 00:05:17;;;;;;;3.60;1.90;;;;;;;21.42;50.81;98540.75;104731;1274;63276;-25
2022/07/31 00:07:45;;;;;;;4.50;2.30;;;;;;;21.42;50.90;98542.83;104690;1274;74788;-26
2022/07/31 00:10:12;;;;;;;6.80;2.60;;;;;;;21.43;50.89;98544.05;104699;1272;75954;-25
2022/07/31 00:12:40;;;;;;;3.40;2.20;;;;;;;21.45;50.81;98535.90;104668;1274;75418;-25
2022/07/31 00:15:11;;;;;;;4.00;2.20;;;;;;;21.47;50.94;98535.90;104634;1274;61113;-25
2022/07/31 00:17:39;;;;;;;4.80;2.00;;;;;;;21.49;50.96;98535.15;104630;1274;62046;-25
2022/07/31 00:20:08;;;;;;;3.50;2.60;;;;;;;21.50;50.78;98538.90;104437;1275;76770;-25
2022/07/31 00:22:35;;;;;;;9.50;1.90;;;;;;;21.52;50.81;98536.16;104656;1274;76196;-25
2022/07/31 00:25:03;;;;;;;4.60;2.00;;;;;;;21.52;50.92;98538.80;104665;1274;75487;-25
2022/07/31 00:27:30;;;;;;;7.60;2.30;;;;;;;21.52;50.92;98535.66;104604;1276;61988;-25
2022/07/31 00:29:58;;;;;;;5.00;2.10;;;;;;;21.52;50.87;98536.52;104680;1274;63102;-25
2022/07/31 00:32:26;;;;;;;5.70;2.10;;;;;;;21.52;50.84;98534.53;104621;1274;76704;-25
2022/07/31 00:34:54;;;;;;;5.10;2.60;;;;;;;21.51;51.05;98533.39;104660;1271;75889;-25
2022/07/31 00:37:22;;;;;;;4.20;2.20;;;;;;;21.51;50.97;98535.08;104660;1274;75230;-25
2022/07/31 00:39:50;;;;;;;5.20;2.30;;;;;;;21.52;51.15;98534.61;104725;1274;62413;-25
2022/07/31 00:42:22;;;;;;;6.90;2.00;;;;;;;21.51;51.19;98530.46;104636;1272;61125;-25
2022/07/31 00:44:50;;;;;;;10.20;2.20;;;;;;;21.50;51.17;98530.58;104411;1275;76265;-25
2022/07/31 00:47:17;;;;;;;12.00;2.50;;;;;;;21.49;51.31;98537.19;104672;1275;76989;-25
2022/07/31 00:49:51;;;;;;;4.00;2.10;;;;;;;21.48;51.29;98535.93;104664;1274;74700;-25
2022/07/31 00:52:20;;;;;;;7.30;2.20;;;;;;;21.47;51.40;98536.02;104800;1274;62959;-25
2022/07/31 00:54:48;;;;;;;7.30;2.10;;;;;;;21.46;51.52;98542.73;104725;1275;62828;-25
2022/07/31 00:57:15;;;;;;;5.30;2.00;;;;;;;21.45;51.58;98538.70;104597;1274;76069;-25
2022/07/31 00:59:42;;;;;;;3.90;1.90;;;;;;;21.44;51.96;98539.77;104701;1274;75929;-25
2022/07/31 01:02:10;;;;;;;3.90;2.20;;;;;;;21.42;52.33;98544.05;104647;1274;75096;-25
2022/07/31 01:04:37;;;;;;;7.70;2.30;;;;;;;21.34;53.87;98547.73;104640;1274;61355;-25
2022/07/31 01:07:07;;;;;;;2.60;1.70;;;;;;;21.19;55.08;98547.41;104666;1274;63108;-25
2022/07/31 01:09:35;;;;;;;6.00;2.20;;;;;;;21.07;56.06;98553.70;104682;1274;76594;-25
2022/07/31 01:12:14;;;;;;;4.50;2.30;;;;;;;20.95;56.71;98554.61;104704;1274;76829;-25
2022/07/31 01:14:48;;;;;;;7.10;2.10;;;;;;;20.81;58.00;98552.53;104474;1277;75177;-25
2022/07/31 01:17:16;;;;;;;5.10;2.00;;;;;;;20.67;58.64;98554.30;104451;1274;61746;-25
2022/07/31 01:19:44;;;;;;;8.10;2.20;;;;;;;20.56;59.06;98554.45;104715;1274;61038;-25
2022/07/31 01:22:39;;;;;;;5.50;2.40;;;;;;;20.49;59.20;98558.23;104601;1275;76536;-25
2022/07/31 01:25:22;;;;;;;4.50;2.30;;;;;;;20.41;59.66;98570.34;104647;1276;77012;-25
2022/07/31 01:28:03;;;;;;;4.10;2.30;;;;;;;20.34;60.14;98579.18;104632;1274;76170;-25
2022/07/31 01:30:34;;;;;;;11.10;2.40;;;;;;;20.29;60.81;98590.36;104547;1274;63093;-27
2022/07/31 01:33:05;;;;;;;4.40;1.80;;;;;;;20.15;65.75;98587.44;104602;1276;63054;-25
2022/07/31 01:35:37;;;;;;;7.40;2.60;;;;;;;20.15;65.90;98586.95;104504;1275;76684;-24
2022/07/31 01:38:19;;;;;;;6.90;1.80;;;;;;;20.06;67.50;98574.11;104386;1275;77153;-22
2022/07/31 01:40:49;;;;;;;7.00;2.50;;;;;;;19.60;68.53;98547.80;104407;1274;75423;-20
2022/07/31 01:43:18;;;;;;;10.00;3.10;;;;;;;19.20;69.18;98539.61;104509;1275;61157;-21
2022/07/31 01:45:46;;;;;;;12.30;3.80;;;;;;;18.89;69.87;98536.81;104661;1274;62088;-21
2022/07/31 01:48:14;;;;;;;5.40;2.60;;;;;;;18.72;70.69;98534.90;104665;1274;77159;-21
2022/07/31 01:50:43;;;;;;;4.80;2.70;;;;;;;19.07;70.13;98544.38;104591;1274;77049;-21
2022/07/31 01:53:13;;;;;;;6.70;2.70;;;;;;;19.38;68.65;98547.83;104475;1275;75267;-21
2022/07/31 01:55:40;;;;;;;3.20;2.00;;;;;;;19.39;68.88;98556.25;104540;1275;63154;-21
2022/07/31 01:58:31;;;;;;;3.60;2.00;;;;;;;19.18;69.79;98555.86;104549;1274;61925;-21
2022/07/31 02:01:02;;;;;;;9.30;2.80;;;;;;;18.96;70.76;98553.06;104719;1274;75490;-21
2022/07/31 02:03:32;;;;;;;6.30;2.10;;;;;;;18.78;71.99;98555.51;104601;1274;75949;-21
2022/07/31 02:06:16;;;;;;;3.90;2.00;;;;;;;19.19;70.93;98546.57;104597;1274;75271;-21
2022/07/31 02:08:44;;;;;;;3.30;2.00;;;;;;;19.52;69.67;98543.70;104636;1274;61720;-22
2022/07/31 02:11:13;;;;;;;4.30;2.10;;;;;;;19.49;68.55;98534.35;104685;1274;63036;-21
2022/07/31 02:13:41;;;;;;;7.80;2.90;;;;;;;19.35;69.01;98533.36;104631;1275;76593;-21
2022/07/31 02:16:08;;;;;;;5.20;2.60;;;;;;;19.16;69.73;98534.98;104625;1274;76956;-22
2022/07/31 02:18:36;;;;;;;7.80;2.60;;;;;;;18.97;70.05;98535.74;104681;1274;75141;-21
2022/07/31 02:21:12;;;;;;;3.50;2.30;;;;;;;18.82;70.99;98532.22;104646;1274;64442;-22
2022/07/31 02:23:40;;;;;;;5.50;2.40;;;;;;;19.13;70.80;98527.29;104682;1273;61984;-21
2022/07/31 02:26:07;;;;;;;4.00;2.50;;;;;;;19.30;69.67;98525.12;104799;1274;76640;-21
2022/07/31 02:28:36;;;;;;;4.30;2.30;;;;;;;19.24;69.73;98521.52;104621;1274;77092;-22
2022/07/31 02:31:05;;;;;;;5.20;2.90;;;;;;;19.10;70.05;98521.67;104360;1274;75519;-22
2022/07/31 02:33:32;;;;;;;5.00;2.50;;;;;;;18.93;70.81;98527.23;104718;1274;61257;-22
2022/07/31 02:36:00;;;;;;;4.90;2.20;;;;;;;18.80;70.98;98519.70;104608;1274;62075;-22
2022/07/31 02:38:28;;;;;;;3.50;2.20;;;;;;;19.21;70.45;98520.92;104712;1274;76476;-22
2022/07/31 02:40:57;;;;;;;2.90;2.20;;;;;;;19.55;69.30;98521.86;105008;1274;77056;-22
2022/07/31 02:43:25;;;;;;;5.80;2.50;;;;;;;19.52;69.12;98524.49;104729;1277;74296;-24
2022/07/31 02:45:54;;;;;;;3.20;2.10;;;;;;;19.35;69.40;98526.98;105059;1274;62018;-23
2022/07/31 02:48:23;;;;;;;3.10;2.50;;;;;;;19.14;70.46;98526.90;104737;1273;61994;-22
2022/07/31 02:50:54;;;;;;;9.70;2.30;;;;;;;18.94;71.56;98529.75;104755;1273;76651;-23
2022/07/31 02:53:22;;;;;;;5.20;2.20;;;;;;;19.27;70.87;98522.70;104966;1274;76944;-23
2022/07/31 02:55:51;;;;;;;2.80;1.90;;;;;;;19.58;70.11;98524.81;104673;1275;75414;-23
2022/07/31 02:58:19;;;;;;;3.20;2.40;;;;;;;19.51;70.22;98525.18;104590;1273;62957;-23
2022/07/31 03:00:46;;;;;;;5.20;2.30;;;;;;;19.29;71.12;98526.52;104993;1273;63060;-22
2022/07/31 03:03:14;;;;;;;3.60;2.40;;;;;;;19.05;72.10;98530.85;105010;1273;76474;-23
2022/07/31 03:05:42;;;;;;;3.20;1.70;;;;;;;18.83;72.91;98535.27;104759;1274;76012;-23
2022/07/31 03:08:09;;;;;;;5.40;2.60;;;;;;;19.10;72.81;98530.75;104967;1273;75303;-23
2022/07/31 03:10:37;;;;;;;5.70;2.60;;;;;;;19.30;71.70;98522.60;104998;1273;63112;-23
2022/07/31 03:13:04;;;;;;;3.70;2.20;;;;;;;19.18;72.33;98523.77;104791;1273;61465;-23
2022/07/31 03:15:32;;;;;;;5.60;2.60;;;;;;;18.97;72.73;98530.23;104532;1273;75492;-23
2022/07/31 03:17:59;;;;;;;4.90;1.80;;;;;;;18.75;73.82;98523.08;104559;1273;76391;-23
2022/07/31 03:20:32;;;;;;;;;;;;;;;18.97;73.02;98518.77;104661;1274;75076;-23
2022/07/31 03:23:00;;;;;;;3.30;2.50;;;;;;;19.14;72.13;98515.77;104702;1273;63091;-23
2022/07/31 03:25:27;;;;;;;4.70;3.50;;;;;;;19.09;71.71;98515.70;104898;1273;61467;-23
2022/07/31 03:27:54;;;;;;;3.70;2.40;;;;;;;18.91;72.87;98526.20;104737;1273;76616;-22
2022/07/31 03:30:24;;;;;;;2.80;2.30;;;;;;;18.71;73.62;98523.61;104754;1273;76994;-21
2022/07/31 03:32:55;;;;;;;3.20;2.00;;;;;;;18.60;73.99;98531.63;104663;1273;75493;-22
2022/07/31 03:35:23;;;;;;;5.00;2.80;;;;;;;19.01;73.19;98529.96;104569;1273;61996;-22
2022/07/31 03:37:51;;;;;;;3.90;2.70;;;;;;;19.22;72.31;98526.83;104625;1274;63255;-21
2022/07/31 03:40:18;;;;;;;5.00;3.10;;;;;;;19.17;71.88;98527.08;104524;1274;75443;-22
2022/07/31 03:42:49;;;;;;;3.70;2.50;;;;;;;19.04;72.37;98530.31;104609;1273;77092;-22
2022/07/31 03:45:16;;;;;;;3.90;1.90;;;;;;;18.88;73.38;98528.23;104241;1274;74184;-22
2022/07/31 03:47:44;;;;;;;5.00;2.30;;;;;;;19.20;72.43;98526.77;104437;1273;63078;-22
2022/07/31 03:50:11;;;;;;;4.90;2.50;;;;;;;19.48;71.06;98526.52;105064;1274;62757;-22
2022/07/31 03:52:38;;;;;;;3.90;2.20;;;;;;;19.49;70.41;98527.89;104792;1274;75536;-22
2022/07/31 03:55:07;;;;;;;5.20;2.30;;;;;;;19.35;70.74;98529.95;104961;1274;76994;-22
2022/07/31 03:57:35;;;;;;;6.80;2.70;;;;;;;19.16;71.23;98534.38;104628;1274;74153;-22
2022/07/31 04:00:03;;;;;;;2.80;2.10;;;;;;;19.02;71.98;98540.02;104496;1274;61232;-24
2022/07/31 04:02:42;;;;;;;4.20;2.30;;;;;;;19.38;71.55;98540.84;104209;1274;586757;-24
2022/07/31 04:05:29;;;;;;;4.70;2.50;;;;;;;19.60;70.32;98545.27;104642;1274;75643;-22
2022/07/31 04:07:57;;;;;;;3.90;2.50;;;;;;;19.54;70.19;98545.34;104873;1274;76982;-22
2022/07/31 04:10:24;;;;;;;4.80;2.10;;;;;;;19.38;70.81;98542.75;104834;1274;74131;-22
2022/07/31 04:12:52;;;;;;;5.60;2.70;;;;;;;19.22;71.56;98547.29;104873;1274;63170;-22
2022/07/31 04:15:19;;;;;;;3.40;2.10;;;;;;;19.08;71.99;98549.38;104973;1274;61892;-22
2022/07/31 04:17:47;;;;;;;5.20;2.50;;;;;;;19.47;71.11;98548.52;104597;1274;76962;-23
2022/07/31 04:20:20;;;;;;;4.50;2.20;;;;;;;19.82;69.86;98548.00;104704;1274;75793;-24
2022/07/31 04:22:47;;;;;;;3.60;2.60;;;;;;;19.80;69.78;98548.39;104695;1274;75232;-22
2022/07/31 04:25:31;;;;;;;;;;;;;;;19.64;70.04;98553.02;104614;1274;61773;-22
2022/07/31 04:28:21;;;;;;;4.50;2.60;;;;;;;19.43;70.90;98548.67;104642;1274;62155;-22
2022/07/31 04:30:48;;;;;;;7.70;2.20;;;;;;;19.26;71.70;98549.58;104598;1274;75605;-23
2022/07/31 04:33:17;;;;;;;4.00;2.30;;;;;;;19.47;72.17;98545.27;104687;1274;77135;-21
2022/07/31 04:35:44;;;;;;;2.40;2.10;;;;;;;19.63;71.81;98547.02;104666;1274;75101;-21
2022/07/31 04:38:12;;;;;;;4.00;2.80;;;;;;;19.53;71.82;98550.38;104592;1274;62942;-22
2022/07/31 04:40:39;;;;;;;4.90;3.00;;;;;;;19.29;72.84;98551.64;104710;1274;61733;-22
2022/07/31 04:43:06;;;;;;;4.40;2.20;;;;;;;19.04;74.11;98551.35;104817;1274;76543;-22
2022/07/31 04:45:34;;;;;;;3.20;2.40;;;;;;;19.25;74.30;98550.52;104942;1274;76939;-22
2022/07/31 04:48:02;;;;;;;6.00;3.00;;;;;;;19.49;73.52;98550.20;104794;1274;75295;-22
2022/07/31 04:50:30;;;;;;;2.90;2.40;;;;;;;19.41;73.36;98546.95;104710;1274;61171;-24
2022/07/31 04:52:58;;;;;;;3.50;2.50;;;;;;;19.19;74.01;98545.67;104720;1274;60963;-25
2022/07/31 04:55:31;;;;;;;3.40;2.00;;;;;;;18.95;75.03;98543.15;104745;1274;75482;-24
2022/07/31 04:57:59;;;;;;;5.00;2.20;;;;;;;19.22;74.98;98544.05;104667;1274;76711;-25
2022/07/31 05:00:27;;;;;;;3.70;2.30;;;;;;;19.44;74.02;98536.84;104739;1274;75561;-24
2022/07/31 05:02:54;;;;;;;5.10;3.00;;;;;;;19.35;73.85;98537.30;104710;1274;62045;-24
2022/07/31 05:05:22;;;;;;;4.40;2.60;;;;;;;19.11;75.17;98537.67;104623;1274;61743;-24
2022/07/31 05:07:49;;;;;;;3.50;2.50;;;;;;;18.91;75.49;98536.79;104770;1274;76288;-25
2022/07/31 05:13:05;;;;;;;3.50;2.50;;;;;;;19.29;75.26;98535.71;104602;1274;75396;-24
2022/07/31 05:15:33;;;;;;;3.30;2.30;;;;;;;19.43;74.33;98534.33;104605;1274;63106;-23
2022/07/31 05:18:00;;;;;;;3.90;2.20;;;;;;;19.31;74.61;98535.15;104672;1271;61949;-24
2022/07/31 05:21:03;;;;;;;3.20;2.60;;;;;;;19.08;75.16;98535.23;104546;1280;76903;-25
2022/07/31 05:23:49;;;;;;;5.00;2.10;;;;;;;19.06;76.07;98537.69;104983;1273;75838;-25
2022/07/31 05:26:29;;;;;;;3.90;2.90;;;;;;;19.52;74.59;98539.48;104922;1274;75131;-25
2022/07/31 05:28:58;;;;;;;4.10;2.50;;;;;;;19.66;73.95;98535.77;104694;1274;62728;-24
2022/07/31 05:31:27;;;;;;;6.40;2.70;;;;;;;19.59;74.71;98534.85;104669;1272;61235;-25
2022/07/31 05:33:54;;;;;;;6.30;2.90;;;;;;;19.45;75.18;98533.11;104759;1274;76611;-25
2022/07/31 05:36:21;;;;;;;4.90;2.30;;;;;;;19.37;75.25;98535.48;104600;1274;75995;-25
2022/07/31 05:38:49;;;;;;;5.20;2.60;;;;;;;19.77;74.91;98533.98;104642;1271;75716;-25
2022/07/31 05:41:32;;;;;;;5.30;2.40;;;;;;;20.09;73.20;98535.02;104788;1274;62908;-22
2022/07/31 05:44:35;;;;;;;4.30;2.90;;;;;;;19.98;73.31;98537.77;104574;1278;62859;-22
2022/07/31 05:47:06;;;;;;;3.40;2.60;;;;;;;19.82;74.12;98540.88;104781;1274;76460;-22
2022/07/31 05:49:34;;;;;;;3.80;2.10;;;;;;;19.70;75.22;98551.39;104829;1274;75847;-23
2022/07/31 05:52:01;;;;;;;3.90;2.40;;;;;;;20.14;74.68;98549.61;104704;1271;74212;-23
2022/07/31 05:54:31;;;;;;;5.40;3.50;;;;;;;20.57;73.55;98553.35;104584;1274;62072;-23
2022/07/31 05:57:18;;;;;;;3.60;2.80;;;;;;;20.55;72.90;98555.02;104567;1274;62885;-23
2022/07/31 06:00:01;;;;;;;3.00;2.60;;;;;;;20.27;73.39;98553.80;104662;1274;75321;-22
2022/07/31 06:02:37;;;;;;;4.70;2.90;;;;;;;20.01;74.43;98550.96;104622;1274;75824;-23
2022/07/31 06:05:08;;;;;;;3.20;2.20;;;;;;;19.84;75.34;98549.88;104781;1274;74146;-22
2022/07/31 06:07:36;;;;;;;4.40;2.60;;;;;;;20.21;75.25;98556.02;104720;1274;61073;-22
2022/07/31 06:10:04;;;;;;;4.40;2.20;;;;;;;20.59;73.65;98555.50;104593;1274;62406;-22
2022/07/31 06:12:31;;;;;;;6.00;2.70;;;;;;;20.58;73.48;98552.34;104775;1274;76225;-23
2022/07/31 06:15:00;;;;;;;4.10;2.70;;;;;;;20.41;74.03;98553.50;104631;1272;76999;-23
2022/07/31 06:17:33;;;;;;;4.40;2.70;;;;;;;20.19;74.49;98552.44;104732;1274;75450;-23
2022/07/31 06:20:26;;;;;;;3.70;2.10;;;;;;;20.03;75.35;98551.62;105049;1271;64779;-23
2022/07/31 06:22:57;;;;;;;4.00;2.40;;;;;;;20.46;74.90;98554.52;104825;1274;61219;-24
2022/07/31 06:25:27;;;;;;;8.40;3.30;;;;;;;20.72;73.93;98551.33;104652;1274;76657;-26
2022/07/31 06:28:04;;;;;;;4.10;2.80;;;;;;;20.67;73.97;98550.39;104658;1274;76344;-26
2022/07/31 06:30:37;;;;;;;7.10;3.20;;;;;;;20.47;73.88;98544.59;104693;1274;75260;-25
2022/07/31 06:33:05;;;;;;;5.00;3.30;;;;;;;20.23;74.05;98539.61;104626;1274;62235;-25
2022/07/31 06:35:34;;;;;;;4.10;2.80;;;;;;;20.02;75.27;98534.46;104669;1274;62761;-26
2022/07/31 06:38:34;;;;;;;5.60;2.80;;;;;;;20.54;73.86;98531.16;104684;1274;76612;-25
2022/07/31 06:44:39;;;;;;;5.00;3.00;;;;;;;20.72;72.38;98531.14;104404;1274;75844;-25
2022/07/31 06:47:44;;;;;;;6.60;3.30;;;;;;;20.53;73.66;98533.49;104768;1274;62993;-25
2022/07/31 06:50:35;;;;;;;4.00;2.40;;;;;;;20.43;73.87;98529.05;104717;1274;62744;-23
2022/07/31 06:53:22;;;;;;;2.60;2.30;;;;;;;20.89;72.34;98524.85;104734;1274;75288;-25
2022/07/31 06:55:49;;;;;;;3.50;2.80;;;;;;;21.10;71.76;98530.54;104924;1273;76803;-24
2022/07/31 06:58:17;;;;;;;4.70;2.70;;;;;;;21.07;71.13;98527.52;104683;1275;75470;-24
2022/07/31 07:00:44;;;;;;;4.40;3.00;;;;;;;20.95;71.54;98524.03;104602;1275;62014;-24
2022/07/31 07:03:11;;;;;;;10.00;3.20;;;;;;;20.81;72.50;98523.05;104549;1274;61826;-24
2022/07/31 07:05:39;;;;;;;6.30;2.90;;;;;;;20.71;72.65;98522.76;104647;1275;75559;-24
2022/07/31 07:08:12;;;;;;;4.10;2.80;;;;;;;21.21;71.51;98519.05;104765;1273;77141;-24
2022/07/31 07:10:42;;;;;;;4.30;2.50;;;;;;;21.65;69.87;98521.90;104592;1275;73630;-25
2022/07/31 07:13:35;;;;;;;;;;;;;;;21.62;68.70;98518.83;104541;1274;62380;-24
2022/07/31 07:16:13;;;;;;;4.70;3.20;;;;;;;21.39;70.08;98519.95;104561;1274;62805;-24
2022/07/31 07:18:41;;;;;;;4.40;3.10;;;;;;;21.14;70.22;98523.27;104651;1275;76339;-24
2022/07/31 07:21:10;;;;;;;7.40;4.10;;;;;;;20.90;70.85;98524.31;104653;1274;75746;-24
2022/07/31 07:23:37;;;;;;;6.60;4.20;;;;;;;20.72;71.80;98534.92;104497;1275;75164;-24
2022/07/31 07:26:18;;;;;;;7.70;5.00;;;;;;;21.14;71.36;98532.59;104550;1274;61072;-24
2022/07/31 07:28:46;;;;;;;4.60;3.60;;;;;;;21.44;69.38;98532.35;104436;1275;61133;-24
2022/07/31 07:31:13;;;;;;;6.30;3.70;;;;;;;21.33;69.00;98533.24;104558;1274;74605;-23
2022/07/31 07:33:41;;;;;;;7.60;3.60;;;;;;;21.09;69.58;98538.35;104356;1275;77003;-23
2022/07/31 07:36:13;;;;;;;5.80;3.40;;;;;;;20.82;70.22;98543.16;104602;1274;75490;-23
2022/07/31 07:39:16;;;;;;;4.10;3.10;;;;;;;20.49;71.50;98549.39;104547;1275;63575;-25
2022/07/31 07:41:44;;;;;;;4.20;2.40;;;;;;;20.28;72.07;98549.61;104594;1274;61169;-26
2022/07/31 07:44:12;;;;;;;4.30;2.80;;;;;;;20.65;71.51;98550.38;104603;1274;76647;-26
2022/07/31 07:46:39;;;;;;;4.30;2.70;;;;;;;21.05;70.37;98557.28;104336;1274;77468;-26
2022/07/31 07:49:07;;;;;;;4.40;3.20;;;;;;;21.06;69.97;98556.48;104561;1273;75313;-25
2022/07/31 07:51:55;;;;;;;5.20;3.30;;;;;;;20.85;70.56;98557.09;104588;1273;62041;-23
2022/07/31 07:54:38;;;;;;;6.80;3.50;;;;;;;20.62;71.06;98559.55;104797;1274;62841;-24
2022/07/31 07:57:26;;;;;;;6.80;3.50;;;;;;;20.43;72.02;98563.79;104567;1273;76730;-24
2022/07/31 08:00:05;;;;;;;2.90;2.50;;;;;;;20.30;72.53;98563.29;104669;1274;76932;-23
2022/07/31 08:02:43;;;;;;;5.40;2.70;;;;;;;20.90;71.56;98567.05;104587;1273;74249;-23
2022/07/31 08:05:31;;;;;;;5.00;2.80;;;;;;;21.43;69.59;98567.23;104596;1274;63157;-23
2022/07/31 08:07:59;;;;;;;4.80;3.10;;;;;;;21.41;68.71;98565.20;104709;1273;62787;-23
2022/07/31 08:10:39;;;;;;;4.30;2.70;;;;;;;21.27;69.57;98564.40;104783;1274;76640;-23
2022/07/31 08:13:10;;;;;;;6.80;3.20;;;;;;;21.15;69.82;98565.33;104722;1274;77040;-23
2022/07/31 08:15:56;;;;;;;5.30;3.60;;;;;;;21.02;70.54;98566.15;104738;1275;75357;-22
2022/07/31 08:18:33;;;;;;;4.50;3.30;;;;;;;20.95;70.95;98560.55;104501;1275;64484;-22
2022/07/31 08:21:00;;;;;;;3.00;2.70;;;;;;;21.42;68.95;98562.44;104595;1273;62075;-21
2022/07/31 08:23:28;;;;;;;3.30;3.00;;;;;;;21.80;67.73;98566.11;104478;1274;76744;-22
2022/07/31 08:25:55;;;;;;;5.00;3.20;;;;;;;21.80;67.05;98568.19;104595;1273;76781;-21
2022/07/31 08:28:25;;;;;;;5.40;3.40;;;;;;;21.63;67.50;98569.11;104622;1274;74328;-22
2022/07/31 08:30:53;;;;;;;4.80;3.60;;;;;;;21.34;67.28;98570.52;104671;1273;61855;-22
2022/07/31 08:33:21;;;;;;;7.10;3.80;;;;;;;21.05;67.76;98576.75;104745;1274;61946;-22
2022/07/31 08:35:54;;;;;;;8.50;3.70;;;;;;;20.79;68.47;98582.68;104598;1273;75537;-22
2022/07/31 08:38:22;;;;;;;5.00;3.10;;;;;;;20.54;69.35;98580.65;104592;1273;76027;-22
2022/07/31 08:41:06;;;;;;;7.10;3.20;;;;;;;20.79;67.77;98585.73;104630;1276;75446;-22
2022/07/31 08:43:34;;;;;;;5.80;3.50;;;;;;;20.88;67.84;98588.15;104615;1273;61096;-23
2022/07/31 08:46:21;;;;;;;6.50;3.60;;;;;;;20.64;69.81;98594.50;104593;1273;61078;-25
2022/07/31 08:48:52;;;;;;;4.40;3.60;;;;;;;20.20;71.52;98597.41;104541;1274;74153;-21
2022/07/31 08:51:19;;;;;;;4.80;2.90;;;;;;;19.75;73.71;98601.48;104410;1274;77090;-20
2022/07/31 08:54:09;;;;;;;5.00;3.50;;;;;;;19.86;74.67;98602.96;104569;1273;74990;-23
2022/07/31 08:56:37;;;;;;;5.00;3.60;;;;;;;19.93;74.18;98600.98;104597;1273;63072;-23
2022/07/31 08:59:04;;;;;;;5.10;3.50;;;;;;;19.77;75.20;98595.08;104594;1273;61704;-24
2022/07/31 09:01:32;;;;;;;4.80;3.80;;;;;;;19.57;75.97;98590.73;104698;1272;75468;-23
2022/07/31 09:04:00;;;;;;;6.20;2.70;;;;;;;19.38;77.17;98588.90;104653;1273;77063;-23
2022/07/31 09:06:30;;;;;;;4.60;3.60;;;;;;;19.76;76.39;98584.86;104675;1273;75674;-22
2022/07/31 09:08:57;;;;;;;5.40;3.30;;;;;;;20.13;75.44;98579.38;104698;1273;62080;-22
2022/07/31 09:11:24;;;;;;;5.40;3.50;;;;;;;20.16;75.39;98580.25;104721;1273;62734;-22
2022/07/31 09:14:04;;;;;;;8.10;3.60;;;;;;;19.95;75.70;98580.25;104598;1273;75636;-22
2022/07/31 09:16:45;;;;;;;4.60;2.80;;;;;;;19.74;76.49;98576.80;104767;1273;77125;-22
2022/07/31 09:19:13;;;;;;;4.10;2.70;;;;;;;20.08;76.42;98573.18;104435;1273;74575;-22
2022/07/31 09:22:06;;;;;;;8.00;3.10;;;;;;;20.41;75.16;98571.47;104657;1273;61044;-22
2022/07/31 09:24:37;;;;;;;6.30;3.70;;;;;;;20.32;75.60;98574.19;104643;1273;61746;-22
2022/07/31 09:27:07;;;;;;;5.10;3.70;;;;;;;20.15;76.29;98575.08;104671;1273;76617;-22
2022/07/31 09:29:39;;;;;;;6.40;4.70;;;;;;;19.96;76.57;98572.58;104396;1275;77245;-21
2022/07/31 09:32:19;;;;;;;3.70;3.10;;;;;;;19.81;77.72;98575.63;104540;1273;75434;-22
2022/07/31 09:35:11;;;;;;;6.80;3.80;;;;;;;20.29;76.52;98584.09;104677;1273;61146;-22
2022/07/31 09:37:40;;;;;;;6.00;3.50;;;;;;;20.50;75.71;98588.66;104617;1274;61130;-22
2022/07/31 09:40:34;;;;;;;5.10;4.00;;;;;;;20.35;75.41;98588.27;104578;1273;76614;-22
2022/07/31 09:43:28;;;;;;;6.80;4.50;;;;;;;20.03;76.94;98586.50;104657;1273;77020;-22
2022/07/31 09:46:01;;;;;;;3.90;2.90;;;;;;;19.85;77.59;98584.25;104690;1273;75452;-22
2022/07/31 09:48:29;;;;;;;5.40;3.10;;;;;;;20.22;76.99;98585.34;104383;1273;61778;-22
2022/07/31 09:51:00;;;;;;;4.80;3.90;;;;;;;20.53;75.64;98589.42;104604;1274;63097;-22
2022/07/31 09:53:39;;;;;;;5.90;3.70;;;;;;;20.51;75.34;98597.77;104585;1273;76547;-22
2022/07/31 09:56:33;;;;;;;6.30;4.20;;;;;;;20.36;76.32;98594.11;104433;1274;77204;-22
2022/07/31 09:59:01;;;;;;;4.30;3.50;;;;;;;20.22;76.91;98591.61;104579;1273;75571;-22
2022/07/31 10:01:29;;;;;;;5.90;3.50;;;;;;;20.58;76.06;98587.77;104613;1275;63138;-22
2022/07/31 10:03:58;;;;;;;3.90;3.50;;;;;;;20.89;74.51;98582.13;104456;1273;63160;-22
2022/07/31 10:06:26;;;;;;;6.10;3.80;;;;;;;20.87;74.45;98578.70;104492;1273;75466;-22
2022/07/31 10:08:54;;;;;;;8.00;4.00;;;;;;;20.67;74.40;98574.73;104432;1275;76866;-22
2022/07/31 10:11:24;;;;;;;4.70;3.20;;;;;;;20.49;75.89;98580.27;104605;1273;75512;-23
2022/07/31 10:14:19;;;;;;;3.30;2.80;;;;;;;20.33;75.88;98567.99;104632;1273;64583;-24
2022/07/31 10:16:47;;;;;;;5.30;3.30;;;;;;;20.77;75.18;98561.80;104403;1273;62782;-24
2022/07/31 10:19:36;;;;;;;5.10;3.40;;;;;;;20.99;74.17;98558.06;104391;1273;75499;-23
2022/07/31 10:22:39;;;;;;;5.70;3.60;;;;;;;20.87;74.93;98561.37;104573;1273;75898;-23
2022/07/31 10:25:08;;;;;;;4.20;3.80;;;;;;;20.67;74.58;98557.88;104363;1273;75722;-22
2022/07/31 10:27:35;;;;;;;3.70;2.90;;;;;;;20.42;75.80;98566.52;104324;1273;63778;-23
2022/07/31 10:30:09;;;;;;;4.20;3.40;;;;;;;20.70;75.09;98559.19;104549;1275;62565;-23
2022/07/31 10:32:42;;;;;;;4.50;3.10;;;;;;;20.86;74.40;98553.23;104580;1274;76342;-23
2022/07/31 10:35:25;;;;;;;4.40;3.30;;;;;;;20.82;74.83;98546.63;104430;1275;77077;-23
2022/07/31 10:38:11;;;;;;;4.60;3.50;;;;;;;20.76;75.44;98549.17;104556;1273;75306;-23
2022/07/31 10:41:09;;;;;;;4.00;2.60;;;;;;;20.85;75.92;98541.49;104601;1273;61900;-24
2022/07/31 10:43:51;;;;;;;4.20;3.30;;;;;;;21.48;73.60;98538.49;104632;1273;61741;-22
2022/07/31 10:46:34;;;;;;;5.20;3.10;;;;;;;21.85;72.40;98543.06;104708;1274;76246;-22
2022/07/31 10:49:38;;;;;;;5.00;2.80;;;;;;;21.83;71.90;98534.80;104930;1274;77392;-22
2022/07/31 10:52:32;;;;;;;4.80;3.40;;;;;;;21.81;72.27;98530.92;104979;1274;74277;-22
2022/07/31 10:55:22;;;;;;;6.10;2.60;;;;;;;21.95;72.39;98531.02;104623;1274;63447;-22
2022/07/31 10:58:12;;;;;;;3.40;2.80;;;;;;;22.44;69.51;98531.44;104574;1274;62156;-22
2022/07/31 11:00:51;;;;;;;11.50;2.70;;;;;;;22.67;68.85;98524.25;104622;1274;76459;-22
2022/07/31 11:03:43;;;;;;;3.50;2.90;;;;;;;22.45;67.95;98525.47;104561;1274;77073;-22
2022/07/31 11:06:43;;;;;;;4.50;2.50;;;;;;;22.16;69.25;98527.86;104616;1274;75455;-20
2022/07/31 11:09:44;;;;;;;3.40;2.90;;;;;;;21.86;70.05;98523.93;104604;1274;61396;-20
2022/07/31 11:12:59;;;;;;;3.60;2.60;;;;;;;21.70;70.63;98527.52;104628;1274;61982;-20
2022/07/31 11:15:51;;;;;;;5.90;3.30;;;;;;;22.14;69.76;98528.89;104651;1274;76439;-20
2022/07/31 11:18:55;;;;;;;4.60;3.00;;;;;;;22.09;69.36;98528.59;104605;1274;76788;-21
2022/07/31 11:21:31;;;;;;;5.90;3.10;;;;;;;21.85;69.53;98525.95;104718;1274;75102;-20
2022/07/31 11:24:22;;;;;;;4.50;3.60;;;;;;;21.52;70.34;98525.25;104612;1274;61196;-20
2022/07/31 11:26:57;;;;;;;6.30;3.10;;;;;;;21.23;71.21;98520.12;104494;1274;61593;-20
2022/07/31 11:29:37;;;;;;;4.70;2.40;;;;;;;21.02;71.87;98528.38;104661;1274;76449;-22
2022/07/31 11:32:24;;;;;;;3.70;2.90;;;;;;;21.57;70.89;98531.30;104639;1274;76572;-20
2022/07/31 11:34:53;;;;;;;3.70;2.80;;;;;;;21.85;69.87;98535.48;104660;1274;75182;-20
2022/07/31 11:37:23;;;;;;;3.60;2.90;;;;;;;21.84;70.33;98542.02;104609;1274;61808;-23
2022/07/31 11:39:51;;;;;;;4.20;3.20;;;;;;;21.64;70.26;98540.17;104663;1274;61114;-20
2022/07/31 11:42:19;;;;;;;7.40;3.20;;;;;;;21.42;70.90;98539.58;104692;1274;75532;-20
2022/07/31 11:45:04;;;;;;;4.10;3.50;;;;;;;21.24;71.61;98549.39;104578;1274;77051;-20
2022/07/31 11:47:41;;;;;;;4.60;2.70;;;;;;;21.17;71.92;98548.23;104643;1271;74887;-22
2022/07/31 11:50:30;;;;;;;3.40;2.80;;;;;;;21.69;70.61;98540.31;104639;1273;61641;-22
2022/07/31 11:53:02;;;;;;;4.50;2.90;;;;;;;21.96;69.54;98535.89;104659;1274;63103;-22
2022/07/31 11:55:29;;;;;;;4.20;3.40;;;;;;;21.93;69.10;98534.99;104609;1274;75540;-22
2022/07/31 11:57:57;;;;;;;3.80;3.20;;;;;;;21.76;69.75;98542.34;104844;1274;76801;-22
2022/07/31 12:00:24;;;;;;;3.50;3.10;;;;;;;21.58;70.76;98542.25;105062;1274;75114;-22
2022/07/31 12:02:56;;;;;;;3.80;3.40;;;;;;;21.40;71.19;98542.27;104954;1274;61834;-23